createdAt,value
2022-12-19T00:01:59.793Z,37.10
2022-12-19T00:04:27.956Z,35.00
2022-12-19T00:06:58.258Z,33.75
2022-12-19T00:09:26.453Z,33.67
2022-12-19T00:11:54.636Z,34.38
2022-12-19T00:14:22.732Z,33.78
2022-12-19T00:16:52.277Z,32.47
2022-12-19T00:19:21.284Z,33.90
2022-12-19T00:21:49.492Z,33.53
2022-12-19T00:24:20.900Z,32.72
2022-12-19T00:26:49.747Z,31.70
2022-12-19T00:29:17.961Z,30.27
2022-12-19T00:31:46.124Z,29.60
2022-12-19T00:34:17.355Z,30.73
2022-12-19T00:36:45.527Z,30.25
2022-12-19T00:39:13.643Z,30.92
2022-12-19T00:41:42.515Z,30.17
2022-12-19T00:44:12.942Z,28.80
2022-12-19T00:46:42.157Z,28.67
2022-12-19T00:49:10.333Z,29.60
2022-12-19T00:51:39.931Z,29.52
2022-12-19T00:54:11.283Z,28.35
2022-12-19T00:56:40.069Z,27.98
2022-12-19T00:59:08.915Z,28.75
2022-12-19T01:01:38.447Z,28.88
2022-12-19T01:07:01.646Z,27.85
2022-12-19T01:09:33.156Z,26.90
2022-12-19T01:12:18.493Z,28.27
2022-12-19T01:14:46.775Z,26.23
2022-12-19T01:17:14.944Z,26.00
2022-12-19T01:19:44.526Z,25.35
2022-12-19T01:22:14.489Z,25.15
2022-12-19T01:24:42.810Z,25.05
2022-12-19T01:27:10.975Z,26.50
2022-12-19T01:29:51.841Z,24.05
2022-12-19T01:32:21.542Z,25.20
2022-12-19T01:34:49.773Z,24.63
2022-12-19T01:37:22.384Z,24.40
2022-12-19T01:39:50.608Z,24.42
2022-12-19T01:42:23.466Z,24.67
2022-12-19T01:45:33.453Z,23.45
2022-12-19T01:48:06.398Z,24.20
2022-12-19T01:50:37.893Z,23.60
2022-12-19T01:53:11.473Z,23.23
2022-12-19T01:55:40.283Z,22.38
2022-12-19T01:58:08.547Z,23.05
2022-12-19T02:00:36.762Z,22.98
2022-12-19T02:03:07.789Z,22.95
2022-12-19T02:05:38.809Z,22.58
2022-12-19T02:08:07.080Z,21.58
2022-12-19T02:10:37.096Z,21.35
2022-12-19T02:13:06.351Z,22.08
2022-12-19T02:15:36.381Z,21.90
2022-12-19T02:18:07.970Z,21.20
2022-12-19T02:21:05.435Z,22.05
2022-12-19T02:23:55.660Z,21.33
2022-12-19T02:26:37.935Z,20.05
2022-12-19T02:29:20.252Z,20.73
2022-12-19T02:31:50.267Z,19.90
2022-12-19T02:34:22.043Z,20.67
2022-12-19T02:37:01.749Z,19.83
2022-12-19T02:39:33.219Z,19.52
2022-12-19T02:42:03.179Z,20.30
2022-12-19T02:44:35.062Z,19.65
2022-12-19T02:47:05.642Z,20.15
2022-12-19T02:49:36.019Z,19.55
2022-12-19T02:52:11.492Z,19.48
2022-12-19T02:54:45.164Z,19.42
2022-12-19T02:57:19.015Z,19.55
2022-12-19T02:59:53.651Z,19.38
2022-12-19T03:02:29.241Z,18.90
2022-12-19T03:04:59.648Z,18.77
2022-12-19T03:07:31.078Z,18.58
2022-12-19T03:10:03.386Z,17.52
2022-12-19T03:12:33.345Z,18.45
2022-12-19T03:15:01.576Z,16.67
2022-12-19T03:17:31.427Z,17.10
2022-12-19T03:19:59.920Z,17.27
2022-12-19T03:22:28.107Z,17.83
2022-12-19T03:24:56.242Z,17.17
2022-12-19T03:27:27.037Z,18.02
2022-12-19T03:29:56.328Z,16.40
2022-12-19T03:32:24.474Z,17.58
2022-12-19T03:34:55.201Z,17.38
2022-12-19T03:37:25.021Z,16.98
2022-12-19T03:39:55.657Z,17.15
2022-12-19T03:42:44.395Z,16.60
2022-12-19T03:45:12.862Z,16.40
2022-12-19T03:47:43.030Z,16.17
2022-12-19T03:50:12.695Z,15.70
2022-12-19T03:52:43.070Z,15.75
2022-12-19T03:55:13.725Z,15.50
2022-12-19T03:57:43.052Z,15.23
2022-12-19T04:00:12.866Z,15.40
2022-12-19T04:02:42.597Z,15.07
2022-12-19T04:05:13.319Z,14.88
2022-12-19T04:07:41.531Z,15.25
2022-12-19T04:10:11.963Z,15.15
2022-12-19T04:12:41.793Z,14.88
2022-12-19T04:15:18.320Z,15.18
2022-12-19T04:17:48.061Z,15.07
2022-12-19T04:20:18.046Z,15.05
2022-12-19T04:22:50.238Z,14.30
2022-12-19T04:25:19.928Z,14.57
2022-12-19T04:27:50.245Z,14.95
2022-12-19T04:30:18.866Z,14.50
2022-12-19T04:32:47.146Z,13.80
2022-12-19T04:35:15.535Z,14.20
2022-12-19T04:37:45.151Z,13.23
2022-12-19T04:40:14.396Z,13.65
2022-12-19T04:42:42.656Z,13.80
2022-12-19T04:45:11.530Z,13.77
2022-12-19T04:47:39.851Z,13.82
2022-12-19T04:50:08.415Z,13.88
2022-12-19T04:52:36.644Z,13.55
2022-12-19T04:55:07.118Z,13.50
2022-12-19T04:57:35.390Z,13.48
2022-12-19T05:00:05.110Z,12.98
2022-12-19T05:02:33.468Z,13.25
2022-12-19T05:05:01.741Z,13.52
2022-12-19T05:07:29.948Z,13.02
2022-12-19T05:10:00.865Z,12.73
2022-12-19T05:12:31.190Z,12.75
2022-12-19T05:14:59.363Z,12.85
2022-12-19T05:17:27.470Z,13.75
2022-12-19T05:19:55.663Z,12.30
2022-12-19T05:22:23.796Z,12.73
2022-12-19T05:24:51.990Z,12.52
2022-12-19T05:27:20.170Z,12.75
2022-12-19T05:29:49.716Z,11.98
2022-12-19T05:32:17.967Z,13.18
2022-12-19T05:34:46.126Z,12.23
2022-12-19T05:37:14.256Z,12.82
2022-12-19T05:39:42.353Z,12.15
2022-12-19T05:42:12.486Z,11.90
2022-12-19T05:44:40.946Z,11.68
2022-12-19T05:47:10.451Z,12.43
2022-12-19T05:49:38.616Z,11.80
2022-12-19T05:52:06.903Z,11.18
2022-12-19T05:54:35.136Z,11.73
2022-12-19T05:57:03.361Z,11.55
2022-12-19T05:59:31.537Z,11.20
2022-12-19T06:01:59.719Z,11.50
2022-12-19T06:04:30.562Z,10.55
2022-12-19T06:06:58.708Z,11.73
2022-12-19T06:09:27.165Z,11.10
2022-12-19T06:11:55.316Z,11.38
2022-12-19T06:14:24.043Z,11.48
2022-12-19T06:16:53.094Z,10.98
2022-12-19T06:19:21.675Z,11.35
2022-12-19T06:21:51.184Z,10.80
2022-12-19T06:24:19.415Z,10.38
2022-12-19T06:26:47.521Z,11.15
2022-12-19T06:29:16.224Z,11.57
2022-12-19T06:31:44.649Z,10.93
2022-12-19T06:34:27.118Z,11.25
2022-12-19T06:37:07.821Z,11.07
2022-12-19T06:39:38.809Z,10.43
2022-12-19T06:42:24.430Z,10.82
2022-12-19T06:44:54.093Z,10.77
2022-12-19T06:47:22.947Z,10.88
2022-12-19T06:49:51.758Z,9.85
2022-12-19T06:52:22.457Z,10.18
2022-12-19T06:54:50.717Z,11.30
2022-12-19T06:57:18.844Z,12.35
2022-12-19T06:59:47.059Z,13.57
2022-12-19T07:02:23.422Z,13.43
2022-12-19T07:04:52.730Z,17.38
2022-12-19T07:07:22.338Z,16.27
2022-12-19T07:09:50.540Z,19.45
2022-12-19T07:12:18.643Z,19.77
2022-12-19T07:14:51.711Z,21.60
2022-12-19T07:17:21.542Z,22.45
2022-12-19T07:19:52.765Z,21.45
2022-12-19T07:22:22.298Z,22.95
2022-12-19T07:24:50.518Z,21.63
2022-12-19T07:27:18.665Z,27.60
2022-12-19T07:29:46.819Z,32.28
2022-12-19T07:32:14.955Z,30.50
2022-12-19T07:34:43.132Z,37.28
2022-12-19T07:37:11.222Z,30.90
2022-12-19T07:39:40.800Z,35.20
2022-12-19T07:42:08.905Z,37.60
2022-12-19T07:44:40.112Z,39.75
2022-12-19T07:47:11.055Z,53.55
2022-12-19T07:49:39.268Z,53.58
2022-12-19T07:52:08.510Z,63.55
2022-12-19T07:54:37.385Z,59.67
2022-12-19T07:57:07.074Z,55.70
2022-12-19T07:59:39.015Z,62.08
2022-12-19T08:02:08.071Z,53.58
2022-12-19T08:04:36.359Z,56.42
2022-12-19T08:07:04.598Z,64.05
2022-12-19T08:09:32.897Z,49.85
2022-12-19T08:12:01.062Z,50.28
2022-12-19T08:14:30.547Z,50.88
2022-12-19T08:19:46.831Z,59.63
2022-12-19T08:22:15.040Z,50.92
2022-12-19T08:24:43.233Z,52.83
2022-12-19T08:27:11.894Z,49.25
2022-12-19T08:29:41.523Z,51.00
2022-12-19T08:32:09.639Z,49.05
2022-12-19T08:34:37.839Z,50.55
2022-12-19T08:37:06.097Z,50.15
2022-12-19T08:39:34.275Z,49.55
2022-12-19T08:42:02.405Z,48.97
2022-12-19T08:44:30.733Z,50.22
2022-12-19T08:47:00.219Z,50.35
2022-12-19T08:49:28.426Z,49.40
2022-12-19T08:51:56.563Z,50.72
2022-12-19T08:54:24.813Z,50.67
2022-12-19T08:56:53.032Z,51.10
2022-12-19T08:59:30.609Z,53.50
2022-12-19T09:02:01.311Z,50.85
2022-12-19T09:06:00.543Z,52.88
2022-12-19T09:07:17.915Z,52.03
2022-12-19T09:09:46.070Z,53.25
2022-12-19T09:12:14.362Z,52.08
2022-12-19T09:14:44.218Z,52.85
2022-12-19T09:17:13.898Z,62.33
2022-12-19T09:19:47.112Z,59.38
2022-12-19T09:22:16.959Z,65.25
2022-12-19T09:24:45.336Z,62.72
2022-12-19T09:27:14.152Z,65.78
2022-12-19T09:29:43.532Z,66.43
2022-12-19T09:32:13.260Z,68.63
2022-12-19T09:34:41.441Z,84.13
2022-12-19T09:37:10.420Z,81.90
2022-12-19T09:39:45.304Z,86.80
2022-12-19T09:42:19.970Z,90.22
2022-12-19T09:45:02.214Z,93.72
2022-12-19T09:47:32.309Z,88.20
2022-12-19T09:50:00.816Z,85.22
2022-12-19T09:52:33.086Z,85.88
2022-12-19T09:55:04.320Z,87.40
2022-12-19T09:57:37.502Z,84.82
2022-12-19T10:00:07.225Z,83.35
2022-12-19T10:02:40.444Z,84.85
2022-12-19T10:05:40.585Z,97.88
2022-12-19T10:08:09.474Z,107.45
2022-12-19T10:12:38.371Z,101.50
2022-12-19T10:13:38.078Z,99.32
2022-12-19T10:16:11.811Z,97.03
2022-12-19T10:18:52.667Z,95.55
2022-12-19T10:22:07.482Z,95.00
2022-12-19T10:25:08.086Z,94.85
2022-12-19T10:27:58.703Z,91.07
2022-12-19T10:30:29.131Z,89.53
2022-12-19T10:33:04.222Z,87.82
2022-12-19T10:35:35.271Z,87.18
2022-12-19T10:38:13.545Z,85.60
2022-12-19T10:40:44.306Z,80.28
2022-12-19T10:43:20.473Z,81.80
2022-12-19T10:46:00.469Z,79.25
2022-12-19T10:48:30.769Z,79.57
2022-12-19T10:51:06.190Z,88.90
2022-12-19T10:53:34.959Z,83.43
2022-12-19T10:56:03.725Z,78.93
2022-12-19T10:58:34.581Z,84.60
2022-12-19T11:01:14.003Z,89.35
2022-12-19T11:03:43.601Z,89.82
2022-12-19T11:06:47.500Z,101.57
2022-12-19T11:09:27.668Z,103.15
2022-12-19T11:16:25.975Z,105.47
2022-12-19T11:18:51.955Z,106.97
2022-12-19T11:23:02.393Z,104.20
2022-12-19T11:29:32.624Z,106.65
2022-12-19T11:29:46.778Z,103.10
2022-12-19T11:30:38.059Z,106.30
2022-12-19T11:30:47.446Z,101.55
2022-12-19T11:32:31.547Z,100.90
2022-12-19T11:34:35.624Z,106.78
2022-12-19T11:37:08.236Z,104.28
2022-12-19T11:39:41.606Z,100.18
2022-12-19T11:42:12.280Z,101.05
2022-12-19T11:44:41.740Z,99.57
2022-12-19T11:47:14.421Z,98.97
2022-12-19T11:49:43.787Z,97.95
2022-12-19T11:52:54.066Z,97.47
2022-12-19T11:55:07.408Z,107.55
2022-12-19T11:57:35.562Z,107.50
2022-12-19T12:00:05.703Z,106.55
2022-12-19T12:02:44.018Z,99.32
2022-12-19T12:05:31.112Z,100.30
2022-12-19T12:10:14.485Z,96.72
2022-12-19T12:14:14.902Z,96.75
2022-12-19T12:22:25.408Z,93.57
2022-12-19T12:29:39.833Z,92.45
2022-12-19T12:31:06.541Z,91.22
2022-12-19T12:31:20.142Z,93.70
2022-12-19T12:31:40.920Z,89.85
2022-12-19T12:31:45.497Z,90.40
2022-12-19T12:35:38.193Z,83.63
2022-12-19T12:40:49.253Z,77.20
2022-12-19T12:43:22.880Z,75.78
2022-12-19T12:45:52.531Z,72.25
2022-12-19T12:48:23.660Z,73.35
2022-12-19T12:50:55.249Z,70.22
2022-12-19T12:53:26.792Z,70.80
2022-12-19T12:55:56.409Z,74.25
2022-12-19T12:58:45.511Z,78.20
2022-12-19T13:01:17.421Z,83.63
2022-12-19T13:03:52.768Z,86.13
2022-12-19T13:06:25.803Z,81.05
2022-12-19T13:08:54.027Z,81.15
2022-12-19T13:11:54.917Z,83.80
2022-12-19T13:14:48.416Z,83.53
2022-12-19T13:17:25.363Z,80.65
2022-12-19T13:19:55.408Z,82.72
2022-12-19T13:22:38.047Z,78.50
2022-12-19T13:25:40.230Z,79.32
2022-12-19T13:28:16.284Z,78.28
2022-12-19T13:31:21.456Z,78.07
2022-12-19T13:34:16.509Z,81.10
2022-12-19T13:39:56.405Z,79.93
2022-12-19T13:39:59.745Z,80.68
2022-12-19T13:42:45.627Z,78.45
2022-12-19T13:45:15.344Z,74.05
2022-12-19T13:47:45.100Z,73.75
2022-12-19T13:50:20.831Z,71.78
2022-12-19T13:52:51.877Z,70.60
2022-12-19T13:55:20.009Z,67.82
2022-12-19T13:57:48.436Z,64.45
2022-12-19T14:00:19.240Z,64.78
2022-12-19T14:02:49.892Z,61.67
2022-12-19T14:05:53.323Z,60.30
2022-12-19T14:08:17.763Z,58.70
2022-12-19T14:11:42.874Z,58.75
2022-12-19T14:14:03.393Z,54.55
2022-12-19T14:16:39.824Z,52.97
2022-12-19T14:19:23.152Z,53.85
2022-12-19T14:22:09.023Z,51.85
2022-12-19T14:24:41.276Z,51.78
2022-12-19T14:28:20.039Z,52.25
2022-12-19T14:30:30.316Z,50.13
2022-12-19T14:33:47.104Z,48.25
2022-12-19T14:36:10.133Z,49.13
2022-12-19T14:39:19.525Z,48.47
2022-12-19T14:41:42.627Z,49.08
2022-12-19T14:53:33.958Z,49.05
2022-12-19T14:54:06.892Z,48.85
2022-12-19T14:54:10.440Z,48.50
2022-12-19T14:54:28.081Z,57.58
2022-12-19T14:56:17.521Z,61.13
2022-12-19T14:58:53.612Z,59.80
2022-12-19T15:01:24.438Z,59.20
2022-12-19T15:04:49.091Z,58.97
2022-12-19T15:07:09.860Z,58.45
2022-12-19T15:11:08.384Z,59.97
2022-12-19T15:14:48.492Z,58.20
2022-12-19T15:15:41.089Z,56.65
2022-12-19T15:18:30.329Z,55.83
2022-12-19T15:20:59.363Z,54.92
2022-12-19T15:23:27.576Z,57.47
2022-12-19T15:26:11.491Z,56.95
2022-12-19T15:28:42.077Z,56.20
2022-12-19T15:31:19.726Z,57.60
2022-12-19T15:34:23.399Z,55.90
2022-12-19T15:36:36.076Z,56.25
2022-12-19T15:39:04.533Z,58.70
2022-12-19T15:41:32.653Z,56.70
2022-12-19T15:44:04.262Z,57.60
2022-12-19T15:46:33.276Z,57.38
2022-12-19T15:49:01.495Z,55.47
2022-12-19T15:51:29.612Z,55.75
2022-12-19T15:54:22.202Z,60.92
2022-12-19T15:56:48.540Z,67.53
2022-12-19T15:59:24.246Z,54.20
2022-12-19T16:01:52.762Z,46.50
2022-12-19T16:04:21.301Z,44.67
2022-12-19T16:06:49.484Z,46.95
2022-12-19T16:09:20.892Z,45.33
2022-12-19T16:11:49.297Z,47.55
2022-12-19T16:14:17.419Z,49.20
2022-12-19T16:16:47.963Z,52.35
2022-12-19T16:19:24.338Z,58.13
2022-12-19T16:21:53.179Z,57.38
2022-12-19T16:24:21.518Z,56.08
2022-12-19T16:26:52.471Z,54.30
2022-12-19T16:29:21.986Z,56.17
2022-12-19T16:31:51.723Z,55.22
2022-12-19T16:34:21.612Z,54.70
2022-12-19T16:36:50.165Z,55.38
2022-12-19T16:39:18.344Z,55.70
2022-12-19T16:41:47.124Z,59.65
2022-12-19T16:44:19.470Z,61.80
2022-12-19T16:46:51.044Z,60.92
2022-12-19T16:49:23.036Z,59.20
2022-12-19T16:51:51.376Z,61.20
2022-12-19T16:54:20.119Z,63.03
2022-12-19T16:56:49.306Z,59.95
2022-12-19T16:59:18.924Z,60.90
2022-12-19T17:01:47.270Z,62.38
2022-12-19T17:04:15.800Z,61.47
2022-12-19T17:06:45.327Z,63.70
2022-12-19T17:09:15.759Z,63.55
2022-12-19T17:11:46.486Z,65.13
2022-12-19T17:14:17.310Z,63.97
2022-12-19T17:16:45.589Z,61.95
2022-12-19T17:19:19.196Z,61.10
2022-12-19T17:21:48.827Z,56.83
2022-12-19T17:24:16.996Z,57.75
2022-12-19T17:26:45.213Z,56.67
2022-12-19T17:29:13.364Z,57.72
2022-12-19T17:31:41.748Z,55.33
2022-12-19T17:34:14.547Z,54.65
2022-12-19T17:36:42.774Z,56.38
2022-12-19T17:39:19.964Z,55.13
2022-12-19T17:41:48.458Z,54.42
2022-12-19T17:44:16.596Z,52.67
2022-12-19T17:46:44.991Z,52.75
2022-12-19T17:49:16.912Z,51.35
2022-12-19T17:51:47.130Z,52.00
2022-12-19T17:54:16.744Z,51.15
2022-12-19T17:56:44.961Z,50.08
2022-12-19T17:59:13.458Z,48.60
2022-12-19T18:01:42.426Z,47.78
2022-12-19T18:04:13.388Z,48.28
2022-12-19T18:06:42.091Z,48.75
2022-12-19T18:09:20.042Z,47.95
2022-12-19T18:11:48.277Z,46.13
2022-12-19T18:14:16.644Z,45.03
2022-12-19T18:16:45.024Z,44.67
2022-12-19T18:19:17.273Z,44.42
2022-12-19T18:21:45.476Z,43.35
2022-12-19T18:24:14.828Z,69.50
2022-12-19T18:26:44.443Z,62.92
2022-12-19T18:29:12.696Z,60.30
2022-12-19T18:31:46.574Z,55.25
2022-12-19T18:34:19.428Z,52.42
2022-12-19T18:36:47.631Z,52.65
2022-12-19T18:39:22.996Z,52.22
2022-12-19T18:41:53.957Z,50.20
2022-12-19T18:44:23.224Z,52.75
2022-12-19T18:46:51.606Z,51.05
2022-12-19T18:49:19.904Z,52.35
2022-12-19T18:51:48.131Z,55.35
2022-12-19T18:54:17.431Z,53.45
2022-12-19T18:56:46.126Z,52.10
2022-12-19T18:59:15.670Z,54.00
2022-12-19T19:01:44.813Z,54.15
2022-12-19T19:04:13.324Z,52.42
2022-12-19T19:06:50.064Z,52.40
2022-12-19T19:09:19.797Z,53.70
2022-12-19T19:12:09.794Z,53.03
2022-12-19T19:14:39.391Z,51.97
2022-12-19T19:17:07.603Z,52.22
2022-12-19T19:19:35.863Z,49.92
2022-12-19T19:22:03.992Z,50.70
2022-12-19T19:24:32.163Z,60.78
2022-12-19T19:27:00.275Z,62.60
2022-12-19T19:29:28.486Z,63.78
2022-12-19T19:31:58.069Z,60.85
2022-12-19T19:34:28.015Z,58.22
2022-12-19T19:36:56.923Z,61.97
2022-12-19T19:39:25.153Z,61.50
2022-12-19T19:41:53.712Z,61.17
2022-12-19T19:44:22.005Z,62.05
2022-12-19T19:46:50.270Z,61.80
2022-12-19T19:49:21.225Z,60.08
2022-12-19T19:51:49.426Z,61.22
2022-12-19T19:54:17.686Z,72.25
2022-12-19T19:56:45.842Z,68.32
2022-12-19T19:59:13.979Z,68.10
2022-12-19T20:01:42.292Z,68.95
2022-12-19T20:04:10.551Z,79.25
2022-12-19T20:06:40.172Z,76.03
2022-12-19T20:09:08.622Z,75.18
2022-12-19T20:11:36.937Z,77.53
2022-12-19T20:14:05.061Z,79.45
2022-12-19T20:16:33.892Z,79.50
2022-12-19T20:19:02.218Z,83.78
2022-12-19T20:21:30.819Z,82.07
2022-12-19T20:24:00.389Z,81.78
2022-12-19T20:26:28.619Z,83.07
2022-12-19T20:28:56.790Z,81.40
2022-12-19T20:31:25.130Z,84.20
2022-12-19T20:33:54.842Z,78.05
2022-12-19T20:36:23.279Z,83.90
2022-12-19T20:38:51.660Z,82.28
2022-12-19T20:41:21.620Z,84.47
2022-12-19T20:43:49.862Z,79.53
2022-12-19T20:46:19.825Z,79.05
2022-12-19T20:48:48.104Z,77.97
2022-12-19T20:51:16.430Z,85.10
2022-12-19T20:53:44.958Z,78.85
2022-12-19T20:56:15.454Z,77.00
2022-12-19T20:58:45.069Z,77.78
2022-12-19T21:01:14.331Z,78.18
2022-12-19T21:03:42.954Z,76.15
2022-12-19T21:06:11.937Z,79.68
2022-12-19T21:08:40.155Z,76.70
2022-12-19T21:11:08.657Z,75.82
2022-12-19T21:13:38.035Z,74.00
2022-12-19T21:16:08.986Z,76.00
2022-12-19T21:18:37.329Z,74.18
2022-12-19T21:21:05.685Z,79.55
2022-12-19T21:23:34.051Z,74.95
2022-12-19T21:26:02.694Z,75.57
2022-12-19T21:28:30.949Z,76.72
2022-12-19T21:30:59.692Z,73.63
2022-12-19T21:33:29.306Z,74.75
2022-12-19T21:35:57.823Z,74.05
2022-12-19T21:38:26.034Z,74.57
2022-12-19T21:40:54.153Z,79.20
2022-12-19T21:43:22.369Z,74.82
2022-12-19T21:45:50.518Z,76.88
2022-12-19T21:48:18.758Z,75.10
2022-12-19T21:50:50.150Z,74.65
2022-12-19T21:53:18.469Z,76.25
2022-12-19T21:55:46.640Z,75.10
2022-12-19T21:58:14.809Z,75.88
2022-12-19T22:00:43.112Z,74.45
2022-12-19T22:03:14.551Z,76.43
2022-12-19T22:05:42.911Z,74.88
2022-12-19T22:08:12.477Z,74.82
2022-12-19T22:10:40.821Z,75.13
2022-12-19T22:13:08.914Z,73.15
2022-12-19T22:15:37.546Z,74.60
2022-12-19T22:18:05.733Z,74.18
2022-12-19T22:20:33.929Z,73.93
2022-12-19T22:23:02.031Z,70.90
2022-12-19T22:25:31.580Z,75.85
2022-12-19T22:27:59.759Z,71.20
2022-12-19T22:30:27.899Z,72.07
2022-12-19T22:32:56.090Z,69.70
2022-12-19T22:35:24.242Z,72.20
2022-12-19T22:37:52.485Z,70.90
2022-12-19T22:40:20.696Z,69.60
2022-12-19T22:42:50.272Z,72.03
2022-12-19T22:45:18.487Z,70.63
2022-12-19T22:47:46.690Z,70.80
2022-12-19T22:50:14.873Z,68.68
2022-12-19T22:52:43.043Z,70.15
2022-12-19T22:55:11.491Z,67.38
2022-12-19T22:57:39.727Z,67.10
2022-12-19T23:00:11.976Z,67.50
2022-12-19T23:02:40.379Z,64.93
2022-12-19T23:05:09.039Z,65.55
2022-12-19T23:07:37.206Z,65.15
2022-12-19T23:10:06.043Z,64.18
2022-12-19T23:12:34.228Z,62.42
2022-12-19T23:15:02.326Z,63.03
2022-12-19T23:17:31.916Z,62.13
2022-12-19T23:20:00.065Z,60.10
2022-12-19T23:22:28.260Z,60.22
2022-12-19T23:24:56.460Z,60.08
2022-12-19T23:27:24.569Z,60.05
2022-12-19T23:29:52.721Z,58.33
2022-12-19T23:32:20.937Z,57.20
2022-12-19T23:34:50.629Z,57.67
2022-12-19T23:37:18.814Z,57.38
2022-12-19T23:39:46.915Z,56.08
2022-12-19T23:42:15.048Z,55.97
2022-12-19T23:44:43.401Z,55.55
2022-12-19T23:47:11.522Z,54.08
2022-12-19T23:49:39.732Z,52.17
2022-12-19T23:52:09.255Z,54.80
2022-12-19T23:54:37.589Z,52.28
2022-12-19T23:57:05.786Z,52.67
2022-12-19T23:59:33.912Z,53.13
